createdAt,value
2022-11-03T00:02:13.065Z,100099.75
2022-11-03T00:04:40.423Z,100101.81
2022-11-03T00:07:07.415Z,100114.53
2022-11-03T00:09:34.529Z,100105.91
2022-11-03T00:12:03.029Z,100109.81
2022-11-03T00:14:30.081Z,100103.03
2022-11-03T00:16:57.293Z,100106.91
2022-11-03T00:19:24.269Z,100105.44
2022-11-03T00:21:52.604Z,100104.84
2022-11-03T00:24:19.544Z,100105.03
2022-11-03T00:26:46.768Z,100108.13
2022-11-03T00:29:15.478Z,100111.19
2022-11-03T00:31:45.109Z,100105.00
2022-11-03T00:34:12.887Z,100103.56
2022-11-03T00:36:44.720Z,100106.44
2022-11-03T00:39:13.086Z,100105.00
2022-11-03T00:41:40.519Z,100105.41
2022-11-03T00:44:10.283Z,100106.84
2022-11-03T00:46:37.868Z,100110.72
2022-11-03T00:49:06.087Z,100107.22
2022-11-03T00:51:37.252Z,100104.13
2022-11-03T00:54:07.247Z,100101.84
2022-11-03T00:56:41.939Z,100103.06
2022-11-03T00:59:10.131Z,100102.44
2022-11-03T01:01:46.319Z,100108.00
2022-11-03T01:04:34.640Z,100109.44
2022-11-03T01:07:04.599Z,100117.00
2022-11-03T01:09:40.317Z,100109.38
2022-11-03T01:12:19.061Z,100109.78
2022-11-03T01:14:53.060Z,100112.25
2022-11-03T01:17:23.847Z,100113.47
2022-11-03T01:19:51.720Z,100108.69
2022-11-03T01:22:20.222Z,100113.41
2022-11-03T01:24:47.639Z,100109.50
2022-11-03T01:27:18.781Z,100110.09
2022-11-03T01:29:46.027Z,100116.66
2022-11-03T01:32:13.404Z,100111.72
2022-11-03T01:34:40.542Z,100121.94
2022-11-03T01:37:08.043Z,100105.50
2022-11-03T01:39:35.409Z,100117.41
2022-11-03T01:42:03.244Z,100128.44
2022-11-03T01:44:35.150Z,100124.53
2022-11-03T01:47:17.744Z,100131.25
2022-11-03T01:50:03.277Z,100133.50
2022-11-03T01:52:56.308Z,100135.72
2022-11-03T01:55:31.168Z,100129.16
2022-11-03T01:58:07.535Z,100118.03
2022-11-03T02:00:36.118Z,100125.78
2022-11-03T02:03:05.878Z,100119.22
2022-11-03T02:05:33.491Z,100115.28
2022-11-03T02:08:26.080Z,100114.84
2022-11-03T02:10:53.573Z,100118.72
2022-11-03T02:13:27.375Z,100117.47
2022-11-03T02:15:59.313Z,100123.19
2022-11-03T02:18:34.474Z,100117.38
2022-11-03T02:21:43.695Z,100115.31
2022-11-03T02:24:32.640Z,100119.00
2022-11-03T02:27:00.124Z,100112.41
2022-11-03T02:29:27.303Z,100125.09
2022-11-03T02:32:07.536Z,100135.50
2022-11-03T02:34:49.165Z,100126.25
2022-11-03T02:37:23.349Z,100122.94
2022-11-03T02:39:58.763Z,100129.03
2022-11-03T02:42:27.167Z,100131.91
2022-11-03T02:45:00.222Z,100130.59
2022-11-03T02:47:31.545Z,100130.50
2022-11-03T02:49:58.748Z,100129.25
2022-11-03T02:52:37.075Z,100132.91
2022-11-03T02:55:11.171Z,100135.16
2022-11-03T02:58:12.824Z,100135.06
2022-11-03T03:00:54.028Z,100136.47
2022-11-03T03:03:40.368Z,100145.38
2022-11-03T03:06:22.105Z,100141.25
2022-11-03T03:09:00.388Z,100137.13
2022-11-03T03:11:37.980Z,100141.00
2022-11-03T03:14:15.638Z,100144.84
2022-11-03T03:17:01.002Z,100140.09
2022-11-03T03:19:43.467Z,100146.41
2022-11-03T03:22:30.134Z,100139.47
2022-11-03T03:25:13.593Z,100137.16
2022-11-03T03:27:48.911Z,100134.03
2022-11-03T03:30:18.309Z,100125.44
2022-11-03T03:32:49.570Z,100126.63
2022-11-03T03:35:26.563Z,100129.03
2022-11-03T03:38:00.266Z,100124.47
2022-11-03T03:40:36.373Z,100131.78
2022-11-03T03:43:08.468Z,100133.78
2022-11-03T03:45:38.041Z,100136.19
2022-11-03T03:48:07.112Z,100139.41
2022-11-03T03:50:39.804Z,100128.31
2022-11-03T03:53:12.284Z,100142.97
2022-11-03T03:55:46.682Z,100132.25
2022-11-03T03:58:15.656Z,100136.75
2022-11-03T04:00:44.056Z,100136.13
2022-11-03T04:03:17.759Z,100125.19
2022-11-03T04:05:46.144Z,100136.56
2022-11-03T04:08:15.492Z,100135.63
2022-11-03T04:11:03.564Z,100131.69
2022-11-03T04:13:49.703Z,100129.41
2022-11-03T04:16:36.223Z,100121.97
2022-11-03T04:19:21.958Z,100124.19
2022-11-03T04:22:08.348Z,100124.34
2022-11-03T04:24:35.355Z,100125.19
2022-11-03T04:27:28.700Z,100113.63
2022-11-03T04:30:09.891Z,100121.31
2022-11-03T04:32:37.800Z,100123.69
2022-11-03T04:35:22.016Z,100116.06
2022-11-03T04:37:59.057Z,100117.44
2022-11-03T04:40:27.343Z,100116.16
2022-11-03T04:42:55.945Z,100115.69
2022-11-03T04:45:32.354Z,100116.03
2022-11-03T04:48:12.110Z,100111.91
2022-11-03T04:50:46.622Z,100112.47
2022-11-03T04:53:18.699Z,100111.00
2022-11-03T04:55:51.372Z,100116.66
2022-11-03T04:58:21.501Z,100120.69
2022-11-03T05:00:53.789Z,100125.06
2022-11-03T05:03:24.150Z,100120.09
2022-11-03T05:05:52.068Z,100119.97
2022-11-03T05:08:20.865Z,100123.63
2022-11-03T05:10:49.631Z,100125.63
2022-11-03T05:13:27.517Z,100115.38
2022-11-03T05:16:04.205Z,100118.66
2022-11-03T05:18:43.068Z,100112.53
2022-11-03T05:21:16.614Z,100118.38
2022-11-03T05:23:52.311Z,100110.28
2022-11-03T05:26:30.913Z,100113.94
2022-11-03T05:29:10.679Z,100116.28
2022-11-03T05:31:42.120Z,100115.84
2022-11-03T05:34:37.204Z,100119.66
2022-11-03T05:37:07.423Z,100121.81
2022-11-03T05:39:40.512Z,100119.69
2022-11-03T05:42:42.409Z,100115.72
2022-11-03T05:45:32.487Z,100111.75
2022-11-03T05:48:03.750Z,100113.94
2022-11-03T05:50:35.230Z,100116.09
2022-11-03T05:53:38.522Z,100113.16
2022-11-03T05:56:07.375Z,100116.16
2022-11-03T05:58:40.797Z,100112.69
2022-11-03T06:01:19.775Z,100117.16
2022-11-03T06:03:48.083Z,100120.66
2022-11-03T06:06:38.353Z,100127.75
2022-11-03T06:09:21.008Z,100128.72
2022-11-03T06:11:50.291Z,100126.41
2022-11-03T06:14:24.837Z,100126.59
2022-11-03T06:17:12.101Z,100124.78
2022-11-03T06:19:44.631Z,100127.75
2022-11-03T06:22:26.217Z,100129.44
2022-11-03T06:25:01.189Z,100125.75
2022-11-03T06:27:34.215Z,100129.06
2022-11-03T06:30:20.495Z,100125.41
2022-11-03T06:32:47.693Z,100132.03
2022-11-03T06:35:15.462Z,100136.00
2022-11-03T06:37:43.630Z,100136.31
2022-11-03T06:40:10.526Z,100134.13
2022-11-03T06:42:39.927Z,100137.28
2022-11-03T06:45:26.421Z,100129.63
2022-11-03T06:47:54.692Z,100136.88
2022-11-03T06:50:34.509Z,100137.66
2022-11-03T06:53:04.610Z,100142.25
2022-11-03T06:55:38.545Z,100131.78
2022-11-03T06:58:23.325Z,100135.53
2022-11-03T07:00:51.641Z,100133.00
2022-11-03T07:03:37.763Z,100135.59
2022-11-03T07:06:10.786Z,100130.22
2022-11-03T07:08:45.807Z,100136.47
2022-11-03T07:11:34.890Z,100132.06
2022-11-03T07:14:21.850Z,100133.69
2022-11-03T07:16:54.866Z,100127.28
2022-11-03T07:19:44.929Z,100123.53
2022-11-03T07:22:25.996Z,100124.44
2022-11-03T07:24:59.698Z,100123.38
2022-11-03T07:27:31.344Z,100120.88
2022-11-03T07:30:17.952Z,100118.41
2022-11-03T07:32:45.567Z,100111.63
2022-11-03T07:35:25.547Z,100111.78
2022-11-03T07:37:53.858Z,100100.03
2022-11-03T07:40:27.659Z,100101.38
2022-11-03T07:43:02.126Z,100092.91
2022-11-03T07:45:48.031Z,100096.44
2022-11-03T07:48:21.075Z,100087.78
2022-11-03T07:50:51.989Z,100070.13
2022-11-03T07:53:41.647Z,100072.69
2022-11-03T07:56:29.351Z,100071.22
2022-11-03T07:59:12.030Z,100055.34
2022-11-03T08:01:45.372Z,100051.00
2022-11-03T08:04:25.800Z,100055.75
2022-11-03T08:06:53.244Z,100046.38
2022-11-03T08:09:21.128Z,100046.84
2022-11-03T08:11:49.330Z,100044.44
2022-11-03T08:14:16.883Z,100039.19
2022-11-03T08:16:44.267Z,100033.50
2022-11-03T08:19:11.634Z,100035.16
2022-11-03T08:21:38.836Z,100035.19
2022-11-03T08:24:07.310Z,100020.84
2022-11-03T08:26:34.554Z,100020.44
2022-11-03T08:29:02.358Z,100010.56
2022-11-03T08:31:29.615Z,100010.13
2022-11-03T08:33:56.600Z,100009.06
2022-11-03T08:36:23.834Z,100009.69
2022-11-03T08:38:50.998Z,100001.00
2022-11-03T08:41:18.440Z,99998.47
2022-11-03T08:43:45.552Z,100003.38
2022-11-03T08:46:17.799Z,99993.00
2022-11-03T08:48:46.324Z,99985.50
2022-11-03T08:51:15.539Z,99989.75
2022-11-03T08:53:43.308Z,99984.75
2022-11-03T08:56:13.812Z,99977.88
2022-11-03T08:58:44.191Z,99976.50
2022-11-03T09:01:11.684Z,99972.38
2022-11-03T09:03:39.698Z,99969.78
2022-11-03T09:06:08.046Z,99962.16
2022-11-03T09:11:22.414Z,99953.63
2022-11-03T09:13:49.337Z,99961.31
2022-11-03T09:16:17.108Z,99949.31
2022-11-03T09:18:45.399Z,99950.38
2022-11-03T09:21:14.705Z,99950.03
2022-11-03T09:23:41.781Z,99945.91
2022-11-03T09:26:09.217Z,99941.56
2022-11-03T09:28:36.157Z,99929.59
2022-11-03T09:31:03.362Z,99927.41
2022-11-03T09:33:30.565Z,99926.59
2022-11-03T09:35:58.131Z,99920.16
2022-11-03T09:38:25.112Z,99909.44
2022-11-03T09:40:52.509Z,99908.75
2022-11-03T09:43:19.665Z,99908.53
2022-11-03T09:45:46.917Z,99893.69
2022-11-03T09:48:14.247Z,99886.78
2022-11-03T09:50:41.916Z,99890.84
2022-11-03T09:53:12.943Z,99886.47
2022-11-03T09:55:40.422Z,99892.66
2022-11-03T09:58:17.335Z,99882.91
2022-11-03T10:00:46.027Z,99882.06
2022-11-03T10:03:20.756Z,99876.06
2022-11-03T10:05:48.615Z,99875.06
2022-11-03T10:08:35.272Z,99872.00
2022-11-03T10:11:06.404Z,99864.97
2022-11-03T10:14:03.576Z,99860.44
2022-11-03T10:16:30.894Z,99860.53
2022-11-03T10:18:58.120Z,99854.75
2022-11-03T10:21:34.095Z,99854.44
2022-11-03T10:24:03.283Z,99856.88
2022-11-03T10:26:52.256Z,99848.66
2022-11-03T10:29:25.766Z,99838.75
2022-11-03T10:31:57.190Z,99830.91
2022-11-03T10:34:36.452Z,99827.81
2022-11-03T10:37:23.122Z,99822.56
2022-11-03T10:39:57.840Z,99826.25
2022-11-03T10:42:34.949Z,99813.75
2022-11-03T10:45:20.357Z,99815.63
2022-11-03T10:48:09.094Z,99806.97
2022-11-03T10:50:38.804Z,99803.63
2022-11-03T10:53:17.098Z,99797.91
2022-11-03T10:55:44.981Z,99797.78
2022-11-03T10:58:12.451Z,99794.19
2022-11-03T11:00:42.733Z,99779.38
2022-11-03T11:03:16.370Z,99767.06
2022-11-03T11:05:48.537Z,99770.53
2022-11-03T11:08:23.324Z,99767.09
2022-11-03T11:10:50.747Z,99764.13
2022-11-03T11:13:26.699Z,99768.53
2022-11-03T11:16:02.729Z,99758.22
2022-11-03T11:18:30.008Z,99758.22
2022-11-03T11:21:05.504Z,99753.97
2022-11-03T11:23:35.713Z,99746.84
2022-11-03T11:26:31.807Z,99747.06
2022-11-03T11:29:15.507Z,99733.34
2022-11-03T11:31:46.161Z,99733.34
2022-11-03T11:34:17.322Z,99721.91
2022-11-03T11:36:47.432Z,99725.50
2022-11-03T11:39:20.501Z,99717.84
2022-11-03T11:42:20.199Z,99705.03
2022-11-03T11:45:06.649Z,99697.50
2022-11-03T11:47:44.175Z,99696.50
2022-11-03T11:50:22.433Z,99692.22
2022-11-03T11:53:12.617Z,99678.88
2022-11-03T11:56:10.550Z,99678.41
2022-11-03T11:58:50.728Z,99658.28
2022-11-03T12:01:24.393Z,99658.63
2022-11-03T12:03:58.371Z,99654.00
2022-11-03T12:06:37.380Z,99656.97
2022-11-03T12:09:19.596Z,99650.63
2022-11-03T12:12:03.516Z,99645.44
2022-11-03T12:14:38.917Z,99646.09
2022-11-03T12:17:19.035Z,99646.59
2022-11-03T12:19:49.482Z,99636.84
2022-11-03T12:22:28.961Z,99629.78
2022-11-03T12:25:02.944Z,99626.72
2022-11-03T12:27:30.284Z,99620.81
2022-11-03T12:30:00.485Z,99619.00
2022-11-03T12:32:35.995Z,99616.31
2022-11-03T12:35:06.713Z,99620.00
2022-11-03T12:37:33.964Z,99615.78
2022-11-03T12:40:00.950Z,99611.19
2022-11-03T12:42:28.292Z,99610.44
2022-11-03T12:44:55.926Z,99601.44
2022-11-03T12:47:23.293Z,99599.59
2022-11-03T12:49:50.603Z,99589.03
2022-11-03T12:52:17.537Z,99591.78
2022-11-03T12:54:44.727Z,99576.75
2022-11-03T12:57:11.754Z,99575.31
2022-11-03T12:59:38.967Z,99575.84
2022-11-03T13:02:06.159Z,99571.06
2022-11-03T13:04:33.399Z,99571.94
2022-11-03T13:07:00.399Z,99566.91
2022-11-03T13:09:27.773Z,99562.19
2022-11-03T13:12:13.399Z,99563.81
2022-11-03T13:14:44.512Z,99563.81
2022-11-03T13:17:14.941Z,99563.06
2022-11-03T13:19:42.211Z,99551.47
2022-11-03T13:22:09.243Z,99551.88
2022-11-03T13:24:36.571Z,99552.28
2022-11-03T13:27:03.616Z,99546.84
2022-11-03T13:29:35.190Z,99543.53
2022-11-03T13:32:04.665Z,99537.09
2022-11-03T13:34:31.862Z,99540.22
2022-11-03T13:36:58.882Z,99530.47
2022-11-03T13:39:26.649Z,99531.41
2022-11-03T13:41:53.704Z,99518.97
2022-11-03T13:44:21.270Z,99522.78
2022-11-03T13:46:48.323Z,99520.28
2022-11-03T13:52:03.593Z,99517.72
2022-11-03T14:00:08.031Z,99507.25
2022-11-03T14:05:31.955Z,99496.31
2022-11-03T14:07:58.896Z,99493.47
2022-11-03T14:10:26.448Z,99493.53
2022-11-03T14:12:53.359Z,99495.31
2022-11-03T14:15:20.732Z,99495.97
2022-11-03T14:17:47.753Z,99489.09
2022-11-03T14:20:15.082Z,99488.50
2022-11-03T14:22:43.219Z,99490.06
2022-11-03T14:25:10.468Z,99480.81
2022-11-03T14:27:37.413Z,99485.69
2022-11-03T14:30:05.650Z,99479.88
2022-11-03T14:32:32.605Z,99480.50
2022-11-03T14:34:59.965Z,99482.84
2022-11-03T14:37:28.595Z,99474.78
2022-11-03T14:39:56.165Z,99472.03
2022-11-03T14:42:23.294Z,99468.69
2022-11-03T14:44:50.659Z,99464.72
2022-11-03T14:47:22.907Z,99461.84
2022-11-03T14:49:50.231Z,99465.03
2022-11-03T14:52:17.577Z,99458.03
2022-11-03T14:54:44.880Z,99458.66
2022-11-03T14:57:11.945Z,99455.38
2022-11-03T14:59:39.323Z,99451.91
2022-11-03T15:02:07.177Z,99456.84
2022-11-03T15:04:34.697Z,99450.66
2022-11-03T15:07:01.737Z,99449.44
2022-11-03T15:09:29.066Z,99443.63
2022-11-03T15:11:56.543Z,99447.88
2022-11-03T15:14:23.611Z,99442.97
2022-11-03T15:16:50.529Z,99447.22
2022-11-03T15:19:17.994Z,99446.06
2022-11-03T15:21:44.934Z,99443.75
2022-11-03T15:26:59.384Z,99451.06
2022-11-03T15:29:26.592Z,99447.69
2022-11-03T15:31:53.535Z,99443.84
2022-11-03T15:34:20.860Z,99440.16
2022-11-03T15:36:47.794Z,99437.59
2022-11-03T15:39:15.964Z,99445.53
2022-11-03T15:41:43.021Z,99441.94
2022-11-03T15:44:10.243Z,99437.66
2022-11-03T15:46:37.543Z,99434.03
2022-11-03T15:49:05.107Z,99431.63
2022-11-03T15:51:32.195Z,99431.75
2022-11-03T15:53:59.657Z,99430.34
2022-11-03T15:56:27.728Z,99433.94
2022-11-03T15:58:55.158Z,99431.53
2022-11-03T16:01:22.543Z,99432.66
2022-11-03T16:03:50.024Z,99430.81
2022-11-03T16:06:17.093Z,99427.66
2022-11-03T16:08:45.011Z,99426.38
2022-11-03T16:11:12.064Z,99420.19
2022-11-03T16:13:39.613Z,99422.31
2022-11-03T16:16:07.406Z,99415.78
2022-11-03T16:18:34.888Z,99420.19
2022-11-03T16:21:02.382Z,99420.19
2022-11-03T16:23:29.383Z,99424.84
2022-11-03T16:25:56.832Z,99412.28
2022-11-03T16:28:24.188Z,99416.81
2022-11-03T16:30:54.479Z,99412.16
2022-11-03T16:33:22.796Z,99401.56
2022-11-03T16:35:49.992Z,99407.38
2022-11-03T16:38:17.137Z,99397.34
2022-11-03T16:40:44.421Z,99401.28
2022-11-03T16:43:12.173Z,99395.47
2022-11-03T16:45:39.386Z,99402.94
2022-11-03T16:48:07.722Z,99400.72
2022-11-03T16:50:35.412Z,99394.44
2022-11-03T16:53:04.334Z,99386.88
2022-11-03T16:55:31.832Z,99381.97
2022-11-03T16:57:58.777Z,99373.69
2022-11-03T17:00:26.215Z,99385.81
2022-11-03T17:02:53.263Z,99384.41
2022-11-03T17:05:21.586Z,99383.59
2022-11-03T17:07:53.755Z,99387.56
2022-11-03T17:10:23.138Z,99375.66
2022-11-03T17:12:50.744Z,99365.63
2022-11-03T17:15:17.988Z,99359.75
2022-11-03T17:17:45.293Z,99353.22
2022-11-03T17:20:13.443Z,99346.38
2022-11-03T17:22:40.491Z,99345.34
2022-11-03T17:25:11.663Z,99343.25
2022-11-03T17:27:45.952Z,99337.31
2022-11-03T17:30:26.593Z,99333.00
2022-11-03T17:32:59.418Z,99337.88
2022-11-03T17:35:39.587Z,99336.28
2022-11-03T17:38:15.676Z,99334.63
2022-11-03T17:40:46.452Z,99326.25
2022-11-03T17:43:26.945Z,99322.63
2022-11-03T17:45:54.727Z,99318.78
2022-11-03T17:48:23.232Z,99321.94
2022-11-03T17:50:55.320Z,99313.28
2022-11-03T17:53:27.018Z,99311.56
2022-11-03T17:56:28.029Z,99306.06
2022-11-03T17:58:46.976Z,99310.69
2022-11-03T18:01:25.824Z,99306.84
2022-11-03T18:03:53.516Z,99308.94
2022-11-03T18:06:21.959Z,99305.22
2022-11-03T18:08:49.766Z,99306.84
2022-11-03T18:11:48.854Z,99304.63
2022-11-03T18:14:16.626Z,99300.31
2022-11-03T18:16:44.461Z,99305.44
2022-11-03T18:19:14.190Z,99305.22
2022-11-03T18:21:41.747Z,99301.47
2022-11-03T18:24:13.946Z,99309.50
2022-11-03T18:26:41.943Z,99302.53
2022-11-03T18:29:09.562Z,99295.56
2022-11-03T18:31:50.866Z,99293.69
2022-11-03T18:34:26.213Z,99284.28
2022-11-03T18:36:54.496Z,99272.41
2022-11-03T18:39:28.097Z,99267.50
2022-11-03T18:41:56.149Z,99257.66
2022-11-03T18:44:30.513Z,99246.56
2022-11-03T18:46:58.626Z,99256.09
2022-11-03T18:49:27.376Z,99243.75
2022-11-03T18:52:02.830Z,99243.50
2022-11-03T18:54:33.988Z,99239.78
2022-11-03T18:57:02.931Z,99242.78
2022-11-03T18:59:39.163Z,99242.34
2022-11-03T19:02:23.972Z,99234.91
2022-11-03T19:04:51.364Z,99223.63
2022-11-03T19:07:29.088Z,99223.50
2022-11-03T19:09:56.564Z,99212.34
2022-11-03T19:12:23.883Z,99213.69
2022-11-03T19:14:51.228Z,99209.53
2022-11-03T19:17:23.508Z,99207.31
2022-11-03T19:19:53.594Z,99205.22
2022-11-03T19:22:23.341Z,99193.50
2022-11-03T19:24:50.439Z,99199.69
2022-11-03T19:27:30.050Z,99185.09
2022-11-03T19:30:00.308Z,99183.56
2022-11-03T19:32:40.310Z,99184.38
2022-11-03T19:35:23.688Z,99180.63
2022-11-03T19:38:04.653Z,99177.66
2022-11-03T19:40:32.908Z,99174.13
2022-11-03T19:43:00.304Z,99169.50
2022-11-03T19:45:29.300Z,99163.34
2022-11-03T19:50:49.187Z,99157.84
2022-11-03T19:53:28.396Z,99157.72
2022-11-03T19:55:56.761Z,99149.25
2022-11-03T19:58:27.757Z,99158.28
2022-11-03T20:00:55.544Z,99155.75
2022-11-03T20:03:24.329Z,99149.50
2022-11-03T20:05:54.884Z,99147.53
2022-11-03T20:08:25.722Z,99150.09
2022-11-03T20:10:53.431Z,99140.44
2022-11-03T20:13:32.265Z,99139.81
2022-11-03T20:16:01.375Z,99142.25
2022-11-03T20:18:29.062Z,99136.91
2022-11-03T20:20:56.439Z,99134.78
2022-11-03T20:23:30.234Z,99132.03
2022-11-03T20:25:58.449Z,99125.88
2022-11-03T20:28:32.233Z,99129.50
2022-11-03T20:31:04.391Z,99125.78
2022-11-03T20:33:31.822Z,99123.69
2022-11-03T20:35:58.938Z,99122.53
2022-11-03T20:38:28.760Z,99113.22
2022-11-03T20:41:05.373Z,99111.72
2022-11-03T20:43:39.077Z,99109.78
2022-11-03T20:46:33.607Z,99105.06
2022-11-03T20:49:01.140Z,99102.06
2022-11-03T20:51:48.215Z,99106.75
2022-11-03T20:54:19.929Z,99103.69
2022-11-03T20:56:47.680Z,99100.44
2022-11-03T20:59:17.785Z,99097.63
2022-11-03T21:01:45.432Z,99098.22
2022-11-03T21:04:19.008Z,99095.44
2022-11-03T21:06:46.842Z,99095.44
2022-11-03T21:09:18.275Z,99088.56
2022-11-03T21:11:46.977Z,99091.84
2022-11-03T21:14:18.753Z,99088.13
2022-11-03T21:17:05.303Z,99074.63
2022-11-03T21:19:51.765Z,99082.06
2022-11-03T21:22:54.674Z,99077.63
2022-11-03T21:25:23.967Z,99072.72
2022-11-03T21:27:55.119Z,99070.63
2022-11-03T21:30:23.344Z,99077.63
2022-11-03T21:32:51.854Z,99060.78
2022-11-03T21:35:22.100Z,99055.88
2022-11-03T21:37:49.096Z,99061.59
2022-11-03T21:40:16.624Z,99063.66
2022-11-03T21:43:05.051Z,99059.59
2022-11-03T21:45:33.156Z,99059.59
2022-11-03T21:48:19.299Z,99056.56
2022-11-03T21:50:47.246Z,99048.56
2022-11-03T21:53:14.483Z,99051.09
2022-11-03T21:55:41.841Z,99057.34
2022-11-03T21:58:08.963Z,99052.00
2022-11-03T22:01:06.457Z,99048.47
2022-11-03T22:03:35.590Z,99042.31
2022-11-03T22:06:07.927Z,99047.56
2022-11-03T22:08:36.163Z,99041.31
2022-11-03T22:11:22.181Z,99026.13
2022-11-03T22:13:58.951Z,99025.31
2022-11-03T22:16:36.967Z,99030.63
2022-11-03T22:19:23.862Z,99026.56
2022-11-03T22:22:10.545Z,99029.72
2022-11-03T22:24:57.388Z,99020.88
2022-11-03T22:27:26.658Z,99024.13
2022-11-03T22:30:12.193Z,99018.81
2022-11-03T22:32:39.964Z,99011.81
2022-11-03T22:35:27.970Z,99008.56
2022-11-03T22:38:41.798Z,99006.13
2022-11-03T22:41:27.596Z,98996.16
2022-11-03T22:44:13.608Z,98998.69
2022-11-03T22:46:40.601Z,98986.22
2022-11-03T22:49:07.819Z,98982.84
2022-11-03T22:51:34.892Z,98986.69
2022-11-03T22:54:10.101Z,98971.88
2022-11-03T22:56:41.221Z,98969.19
2022-11-03T22:59:09.269Z,98971.28
2022-11-03T23:01:36.708Z,98962.22
2022-11-03T23:04:07.299Z,98957.34
2022-11-03T23:06:38.949Z,98960.47
2022-11-03T23:09:07.707Z,98953.50
2022-11-03T23:11:35.163Z,98952.47
2022-11-03T23:14:08.793Z,98950.25
2022-11-03T23:16:43.213Z,98944.19
2022-11-03T23:19:31.932Z,98938.88
2022-11-03T23:21:59.963Z,98940.94
2022-11-03T23:24:47.819Z,98934.56
2022-11-03T23:27:15.095Z,98925.84
2022-11-03T23:29:42.148Z,98920.94
2022-11-03T23:32:09.486Z,98923.63
2022-11-03T23:34:36.388Z,98918.53
2022-11-03T23:37:03.765Z,98919.66
2022-11-03T23:39:30.932Z,98921.88
2022-11-03T23:41:57.887Z,98914.06
2022-11-03T23:44:25.161Z,98918.25
2022-11-03T23:47:10.800Z,98916.25
2022-11-03T23:49:37.992Z,98915.06
2022-11-03T23:52:04.915Z,98908.72
2022-11-03T23:54:32.273Z,98902.78
2022-11-03T23:57:17.620Z,98895.81
